Time;durP1;ratioP1;P1;durP2;ratioP2;P2;SDS_P1;SDS_P2;PMS_P1;PMS_P2;Temp;Humidity;BMP_temperature;BMP_pressure;BME280_temperature;BME280_humidity;BME280_pressure;Samples;Min_cycle;Max_cycle;Signal;HPM_P1;HPM_P2
2022/04/03 00:00:33;;;;;;;44.53;31.52;;;;;;;-0.51;88.95;95731.77;1648180;86;21040;-83
2022/04/03 00:03:04;;;;;;;52.20;38.63;;;;;;;-0.55;88.84;95729.14;1636046;87;21017;-82
2022/04/03 00:05:33;;;;;;;59.53;42.70;;;;;;;-0.61;88.80;95731.75;1656951;86;21057;-83
2022/04/03 00:07:58;;;;;;;57.30;41.13;;;;;;;-0.62;88.84;95728.39;1669205;86;21046;-82
2022/04/03 00:10:23;;;;;;;56.68;39.30;;;;;;;-0.58;88.93;95732.76;1674597;84;21158;-82
2022/04/03 00:12:50;;;;;;;59.13;38.98;;;;;;;-0.51;88.90;95726.19;1657107;86;21012;-82
2022/04/03 00:15:16;;;;;;;54.40;36.50;;;;;;;-0.50;88.62;95732.91;1647446;86;21040;-83
2022/04/03 00:17:43;;;;;;;51.15;35.43;;;;;;;-0.50;88.47;95733.37;1647534;86;21336;-82
2022/04/03 00:20:10;;;;;;;53.00;38.45;;;;;;;-0.54;88.36;95739.68;1647486;86;21049;-83
2022/04/03 00:22:36;;;;;;;50.38;33.83;;;;;;;-0.61;88.30;95738.93;1647714;86;20997;-82
2022/04/03 00:25:03;;;;;;;56.20;37.45;;;;;;;-0.66;87.65;95740.23;1647840;86;20981;-82
2022/04/03 00:27:29;;;;;;;61.98;38.55;;;;;;;-0.71;87.67;95737.27;1642017;87;21475;-83
2022/04/03 00:29:55;;;;;;;50.65;35.78;;;;;;;-0.71;87.88;95743.17;1620252;88;21046;-82
2022/04/03 00:32:20;;;;;;;51.15;34.38;;;;;;;-0.75;87.77;95743.09;1661786;86;21006;-83
2022/04/03 00:34:47;;;;;;;61.42;38.40;;;;;;;-0.82;87.80;95739.42;1636046;86;21040;-83
2022/04/03 00:37:12;;;;;;;35.73;23.00;;;;;;;-0.82;87.83;95739.42;1647416;86;21311;-82
2022/04/03 00:39:38;;;;;;;59.15;39.27;;;;;;;-0.82;88.13;95743.72;1647417;86;20995;-82
2022/04/03 00:42:07;;;;;;;58.42;39.23;;;;;;;-0.94;87.79;95740.00;1647660;86;21035;-82
2022/04/03 00:44:35;;;;;;;62.23;39.25;;;;;;;-0.94;88.01;95742.55;1647546;86;20969;-82
2022/04/03 00:47:03;;;;;;;60.58;38.30;;;;;;;-0.87;88.21;95740.75;1647316;85;21028;-82
2022/04/03 00:49:29;;;;;;;64.47;39.18;;;;;;;-0.84;87.96;95734.12;1647495;87;21136;-82
2022/04/03 00:51:55;;;;;;;56.85;36.25;;;;;;;-0.85;87.75;95745.26;1647657;87;21011;-82
2022/04/03 00:54:20;;;;;;;57.27;36.40;;;;;;;-0.84;87.82;95742.58;1647642;86;21409;-82
2022/04/03 00:56:46;;;;;;;50.30;32.35;;;;;;;-0.86;87.23;95740.63;1647682;87;21024;-82
2022/04/03 00:59:12;;;;;;;48.80;33.48;;;;;;;-0.90;87.06;95739.27;1647568;86;21000;-82
2022/04/03 01:01:42;;;;;;;49.88;31.95;;;;;;;-0.97;86.99;95744.55;1651873;86;21016;-82
2022/04/03 01:04:08;;;;;;;59.33;36.05;;;;;;;-1.06;86.63;95744.02;1647533;86;21003;-82
2022/04/03 01:06:34;;;;;;;50.40;32.88;;;;;;;-1.10;86.67;95746.48;1647701;86;21378;-82
2022/04/03 01:09:00;;;;;;;46.75;31.55;;;;;;;-1.12;86.71;95750.44;1647690;86;20961;-83
2022/04/03 01:11:26;;;;;;;48.55;31.60;;;;;;;-1.09;86.88;95751.92;1638003;86;21058;-83
2022/04/03 01:13:52;;;;;;;45.73;29.65;;;;;;;-1.07;86.80;95753.41;1665475;86;20969;-83
2022/04/03 01:16:18;;;;;;;40.20;27.62;;;;;;;-1.05;86.58;95757.11;1647451;86;21049;-83
2022/04/03 01:18:44;;;;;;;45.45;28.05;;;;;;;-1.06;86.23;95755.48;1647795;86;21008;-82
2022/04/03 01:21:10;;;;;;;44.53;30.23;;;;;;;-1.10;86.11;95757.95;1647631;86;21023;-83
2022/04/03 01:23:36;;;;;;;45.28;29.98;;;;;;;-1.11;86.04;95758.89;1647753;86;21450;-82
2022/04/03 01:26:02;;;;;;;43.23;27.58;;;;;;;-1.14;85.97;95756.56;1653428;86;20962;-82
2022/04/03 01:28:28;;;;;;;46.00;27.48;;;;;;;-1.18;85.77;95758.56;1653128;86;20999;-82
2022/04/03 01:30:54;;;;;;;43.52;27.87;;;;;;;-1.19;85.68;95763.32;1652342;86;21359;-83
2022/04/03 01:33:20;;;;;;;45.95;28.27;;;;;;;-1.21;85.67;95763.45;1674906;86;20962;-82
2022/04/03 01:35:46;;;;;;;38.35;27.67;;;;;;;-1.22;85.65;95764.86;1674367;86;21010;-83
2022/04/03 01:38:12;;;;;;;43.60;25.27;;;;;;;-1.24;85.42;95769.27;1653562;86;21408;-83
2022/04/03 01:40:38;;;;;;;37.48;25.92;;;;;;;-1.27;85.42;95775.43;1674878;85;21015;-83
2022/04/03 01:43:06;;;;;;;39.55;24.95;;;;;;;-1.29;85.28;95779.84;1674909;86;21042;-83
2022/04/03 01:45:35;;;;;;;40.12;24.57;;;;;;;-1.33;85.17;95778.92;1652306;86;21418;-82
2022/04/03 01:48:02;;;;;;;42.10;24.90;;;;;;;-1.37;85.11;95785.20;1677621;84;20962;-83
2022/04/03 01:50:27;;;;;;;38.20;24.00;;;;;;;-1.40;84.97;95779.89;1682119;85;20960;-82
2022/04/03 01:52:53;;;;;;;37.67;24.70;;;;;;;-1.43;84.93;95785.23;1682224;85;20998;-83
2022/04/03 01:55:19;;;;;;;39.35;25.17;;;;;;;-1.44;84.99;95786.64;1674736;85;21001;-83
2022/04/03 01:57:44;;;;;;;34.70;25.05;;;;;;;-1.45;85.08;95789.66;1673451;85;21024;-83
2022/04/03 02:00:11;;;;;;;36.65;23.55;;;;;;;-1.41;85.23;95791.02;1673542;86;20965;-83
2022/04/03 02:02:39;;;;;;;41.35;23.62;;;;;;;-1.40;85.20;95793.10;1681455;85;21036;-83
2022/04/03 02:05:05;;;;;;;36.30;22.40;;;;;;;-1.39;85.13;95795.52;1682109;85;20994;-83
2022/04/03 02:07:33;;;;;;;40.40;24.80;;;;;;;-1.40;85.11;95795.18;1682170;85;20974;-83
2022/04/03 02:10:00;;;;;;;39.15;22.82;;;;;;;-1.40;85.15;95795.18;1682059;85;21034;-83
2022/04/03 02:12:26;;;;;;;39.60;26.33;;;;;;;-1.39;85.24;95799.81;1691203;84;21099;-83
2022/04/03 02:14:51;;;;;;;39.10;23.10;;;;;;;-1.37;85.04;95803.05;1684077;84;21059;-82
2022/04/03 02:17:17;;;;;;;41.80;26.30;;;;;;;-1.39;84.94;95804.91;1682220;85;21465;-83
2022/04/03 02:19:44;;;;;;;37.85;24.63;;;;;;;-1.39;84.70;95805.72;1681975;85;21015;-82
2022/04/03 02:22:09;;;;;;;37.05;24.60;;;;;;;-1.42;84.62;95808.52;1675625;85;21091;-83
2022/04/03 02:24:35;;;;;;;38.25;24.45;;;;;;;-1.43;84.71;95810.72;1673486;86;21064;-82
2022/04/03 02:27:01;;;;;;;38.30;25.68;;;;;;;-1.41;84.69;95815.23;1681067;85;20951;-83
2022/04/03 02:29:27;;;;;;;41.92;25.17;;;;;;;-1.41;84.71;95819.05;1658644;86;21022;-83
2022/04/03 02:31:53;;;;;;;40.38;24.67;;;;;;;-1.39;84.63;95816.37;1640361;87;21335;-83
2022/04/03 02:34:19;;;;;;;40.83;25.15;;;;;;;-1.39;84.67;95815.91;1629064;88;21005;-83
2022/04/03 02:36:45;;;;;;;34.27;23.70;;;;;;;-1.35;84.63;95821.09;1626552;88;21006;-83
2022/04/03 02:39:12;;;;;;;35.55;23.67;;;;;;;-1.36;84.48;95824.58;1628936;88;21317;-83
2022/04/03 02:41:39;;;;;;;33.60;21.20;;;;;;;-1.34;84.44;95828.28;1629026;88;20962;-83
2022/04/03 02:44:05;;;;;;;30.70;19.75;;;;;;;-1.40;84.11;95827.03;1631974;88;21027;-83
2022/04/03 02:46:30;;;;;;;34.35;21.15;;;;;;;-1.45;84.05;95832.16;1626905;88;21434;-83
2022/04/03 02:48:57;;;;;;;33.45;19.82;;;;;;;-1.47;83.93;95835.27;1628342;88;21010;-82
2022/04/03 02:51:23;;;;;;;28.62;19.77;;;;;;;-1.48;84.03;95840.02;1626039;88;21142;-83
2022/04/03 02:53:49;;;;;;;28.15;20.10;;;;;;;-1.51;83.87;95842.36;1626462;88;21436;-83
2022/04/03 02:56:15;;;;;;;34.48;19.60;;;;;;;-1.53;83.96;95846.30;1626559;88;21037;-83
2022/04/03 02:58:41;;;;;;;24.15;16.27;;;;;;;-1.51;83.97;95852.08;1626685;88;21006;-83
2022/04/03 03:01:07;;;;;;;28.65;17.12;;;;;;;-1.53;83.78;95848.04;1629227;88;21101;-83
2022/04/03 03:03:33;;;;;;;29.27;16.65;;;;;;;-1.55;83.76;95851.17;1635030;88;21039;-83
2022/04/03 03:05:59;;;;;;;24.32;16.73;;;;;;;-1.56;83.90;95849.56;1634707;88;21420;-83
2022/04/03 03:08:25;;;;;;;26.40;16.70;;;;;;;-1.51;84.08;95855.09;1634982;88;21379;-83
2022/04/03 03:10:51;;;;;;;27.62;16.85;;;;;;;-1.56;83.70;95850.37;1635055;88;20972;-83
2022/04/03 03:13:16;;;;;;;28.47;17.35;;;;;;;-1.54;83.89;95852.80;1634767;88;21151;-83
2022/04/03 03:15:42;;;;;;;26.17;16.80;;;;;;;-1.58;83.66;95852.23;1634925;88;21114;-82
2022/04/03 03:18:08;;;;;;;28.23;16.02;;;;;;;-1.55;83.88;95853.73;1634854;88;21473;-83
2022/04/03 03:20:34;;;;;;;26.17;16.23;;;;;;;-1.53;83.82;95855.22;1611083;88;21038;-83
2022/04/03 03:23:00;;;;;;;26.85;17.07;;;;;;;-1.54;83.50;95860.44;1635083;88;21083;-83
2022/04/03 03:25:28;;;;;;;24.85;16.95;;;;;;;-1.58;83.55;95853.97;1634932;88;21418;-83
2022/04/03 03:27:54;;;;;;;24.85;16.70;;;;;;;-1.54;83.79;95861.24;1634837;88;21079;-83
2022/04/03 03:30:19;;;;;;;24.75;18.55;;;;;;;-1.52;83.75;95861.93;1634941;88;21072;-83
2022/04/03 03:32:45;;;;;;;26.23;16.93;;;;;;;-1.54;83.31;95861.71;1634660;88;21004;-83
2022/04/03 03:35:11;;;;;;;24.85;15.68;;;;;;;-1.66;83.14;95869.84;1627817;88;20978;-83
2022/04/03 03:37:38;;;;;;;24.07;15.80;;;;;;;-1.71;83.35;95871.13;1626388;88;21094;-83
2022/04/03 03:40:06;;;;;;;22.07;15.98;;;;;;;-1.74;83.52;95868.36;1626560;88;20995;-82
2022/04/03 03:42:33;;;;;;;25.02;15.65;;;;;;;-1.73;83.50;95872.99;1626566;88;21014;-83
2022/04/03 03:44:59;;;;;;;17.35;14.23;;;;;;;-1.77;83.53;95872.42;1626563;88;21022;-83
2022/04/03 03:47:26;;;;;;;21.40;15.65;;;;;;;-1.76;83.77;95872.77;1626026;88;21066;-82
2022/04/03 03:49:52;;;;;;;28.00;14.65;;;;;;;-1.73;83.79;95878.09;1626632;88;21373;-83
2022/04/03 03:52:18;;;;;;;20.35;13.80;;;;;;;-1.69;83.95;95877.72;1626474;88;21034;-83
2022/04/03 03:54:45;;;;;;;20.40;15.20;;;;;;;-1.70;83.60;95880.39;1626476;88;21066;-83
2022/04/03 03:57:13;;;;;;;22.02;14.07;;;;;;;-1.70;83.62;95890.58;1626633;88;20990;-83
2022/04/03 03:59:38;;;;;;;23.80;13.88;;;;;;;-1.70;83.54;95886.76;1627347;88;21400;-83
2022/04/03 04:02:04;;;;;;;16.65;12.58;;;;;;;-1.73;83.49;95887.00;1627695;88;21023;-83
2022/04/03 04:04:30;;;;;;;22.22;12.40;;;;;;;-1.75;83.41;95888.39;1627957;88;21008;-83
2022/04/03 04:06:56;;;;;;;19.35;12.47;;;;;;;-1.78;82.96;95892.45;1682104;85;21053;-83
2022/04/03 04:09:22;;;;;;;16.62;11.22;;;;;;;-1.92;82.82;95899.87;1656358;86;21341;-82
2022/04/03 04:11:48;;;;;;;19.37;11.97;;;;;;;-1.97;82.82;95901.94;1681982;85;21013;-83
2022/04/03 04:14:14;;;;;;;18.05;11.45;;;;;;;-1.98;83.14;95905.41;1682038;85;21031;-83
2022/04/03 04:16:42;;;;;;;18.02;10.48;;;;;;;-1.96;83.31;95906.56;1681772;85;21131;-83
2022/04/03 04:19:08;;;;;;;17.62;10.75;;;;;;;-1.95;83.37;95911.57;1682258;84;21373;-83
2022/04/03 04:21:34;;;;;;;17.00;12.28;;;;;;;-1.96;83.13;95912.94;1682166;85;21089;-83
2022/04/03 04:24:00;;;;;;;13.38;10.45;;;;;;;-1.99;83.05;95916.53;1681986;85;21085;-83
2022/04/03 04:26:25;;;;;;;16.15;11.10;;;;;;;-1.98;83.06;95917.33;1681756;85;21011;-83
2022/04/03 04:28:51;;;;;;;14.03;11.03;;;;;;;-2.06;82.64;95921.75;1670716;85;20956;-83
2022/04/03 04:31:18;;;;;;;17.65;11.15;;;;;;;-2.08;82.70;95926.14;1672975;85;20992;-83
2022/04/03 04:33:44;;;;;;;14.10;9.88;;;;;;;-2.08;82.78;95922.80;1647841;86;21068;-83
2022/04/03 04:36:11;;;;;;;17.80;10.55;;;;;;;-2.09;82.71;95925.80;1670131;86;21026;-82
2022/04/03 04:38:37;;;;;;;13.88;10.90;;;;;;;-2.10;82.80;95932.28;1684954;84;21335;-82
2022/04/03 04:41:03;;;;;;;16.25;10.20;;;;;;;-2.12;82.66;95929.83;1688213;84;21035;-83
2022/04/03 04:43:29;;;;;;;14.23;10.13;;;;;;;-2.10;82.88;95935.64;1681960;85;21006;-83
2022/04/03 04:45:55;;;;;;;13.88;10.08;;;;;;;-2.05;82.94;95939.91;1681847;85;21058;-82
2022/04/03 04:48:21;;;;;;;13.40;10.00;;;;;;;-2.00;82.73;95937.82;1662412;85;20982;-82
2022/04/03 04:50:47;;;;;;;13.88;10.30;;;;;;;-1.98;82.65;95941.06;1665339;85;20961;-83
2022/04/03 04:53:12;;;;;;;16.60;10.13;;;;;;;-1.95;82.79;95943.86;1677532;85;20970;-83
2022/04/03 04:55:38;;;;;;;17.27;11.22;;;;;;;-1.90;82.97;95950.22;1668755;85;21354;-83
2022/04/03 04:58:04;;;;;;;14.60;10.85;;;;;;;-1.83;82.77;95953.09;1670855;86;21039;-83
2022/04/03 05:00:30;;;;;;;16.87;11.65;;;;;;;-1.83;82.62;95951.36;1673184;84;21012;-83
2022/04/03 05:02:56;;;;;;;15.80;10.10;;;;;;;-1.82;82.69;95955.53;1688623;84;20978;-82
2022/04/03 05:05:22;;;;;;;14.20;10.55;;;;;;;-1.79;82.44;95957.49;1698847;84;20976;-83
2022/04/03 05:07:51;;;;;;;18.55;11.12;;;;;;;-1.81;82.27;95960.16;1697414;84;21431;-83
2022/04/03 05:10:17;;;;;;;12.53;10.00;;;;;;;-1.83;82.38;95963.28;1670548;85;21402;-83
2022/04/03 05:12:43;;;;;;;16.48;10.88;;;;;;;-1.84;82.35;95957.38;1670748;85;21031;-82
2022/04/03 05:15:13;;;;;;;14.03;9.78;;;;;;;-1.83;82.14;95963.28;1670615;85;21064;-83
2022/04/03 05:17:42;;;;;;;17.12;10.72;;;;;;;-1.88;81.78;95965.38;1670256;85;20980;-83
2022/04/03 05:20:15;;;;;;;15.60;10.80;;;;;;;-1.88;82.24;95973.83;1680778;85;21058;-83
2022/04/03 05:22:42;;;;;;;14.03;10.80;;;;;;;-1.84;82.42;95971.39;1681842;85;21134;-83
2022/04/03 05:25:10;;;;;;;14.68;10.13;;;;;;;-1.77;82.42;95977.31;1654776;85;21389;-83
2022/04/03 05:27:38;;;;;;;17.02;10.58;;;;;;;-1.70;82.22;95979.73;1654862;85;21482;-83
2022/04/03 05:30:06;;;;;;;16.77;11.28;;;;;;;-1.66;82.10;95985.74;1680380;85;21097;-83
2022/04/03 05:32:32;;;;;;;15.45;10.98;;;;;;;-1.61;81.95;95992.59;1677130;85;21075;-84
2022/04/03 05:34:58;;;;;;;16.45;11.68;;;;;;;-1.68;81.06;95990.14;1677341;85;21043;-83
2022/04/03 05:37:24;;;;;;;15.58;10.40;;;;;;;-1.68;81.27;95995.24;1645933;87;21119;-83
2022/04/03 05:39:51;;;;;;;16.23;11.83;;;;;;;-1.63;81.41;95999.55;1644365;87;21103;-83
2022/04/03 05:42:18;;;;;;;14.70;10.58;;;;;;;-1.58;81.31;96000.46;1634124;87;21229;-83
2022/04/03 05:44:44;;;;;;;16.57;11.65;;;;;;;-1.59;81.04;96011.58;1649741;87;21030;-83
2022/04/03 05:47:10;;;;;;;15.28;11.75;;;;;;;-1.65;81.00;96008.20;1646161;86;21078;-83
2022/04/03 05:49:37;;;;;;;18.02;12.20;;;;;;;-1.64;81.17;96013.64;1647111;86;21003;-83
2022/04/03 05:52:04;;;;;;;14.85;11.75;;;;;;;-1.60;81.32;96015.87;1666979;86;21054;-83
2022/04/03 05:54:29;;;;;;;15.45;10.50;;;;;;;-1.61;81.07;96012.98;1666905;86;21051;-83
2022/04/03 05:56:55;;;;;;;16.87;10.23;;;;;;;-1.63;80.95;96013.56;1667236;86;21086;-83
2022/04/03 05:59:21;;;;;;;14.28;10.53;;;;;;;-1.65;80.77;96023.49;1667507;86;21062;-83
2022/04/03 06:01:48;;;;;;;19.60;11.85;;;;;;;-1.65;80.77;96026.04;1667362;86;21083;-84
2022/04/03 06:04:14;;;;;;;15.18;10.95;;;;;;;-1.64;80.50;96025.92;1652396;86;22538;-83
2022/04/03 06:06:40;;;;;;;17.07;13.48;;;;;;;-1.62;80.75;96025.83;1638135;86;21030;-83
2022/04/03 06:09:06;;;;;;;18.20;12.40;;;;;;;-1.59;80.62;96023.05;1647211;86;21143;-83
2022/04/03 06:11:32;;;;;;;18.30;13.28;;;;;;;-1.63;80.49;96032.66;1645306;86;21430;-83
2022/04/03 06:13:58;;;;;;;13.98;10.53;;;;;;;-1.62;80.67;96030.92;1644608;86;21012;-83
2022/04/03 06:16:23;;;;;;;18.15;12.82;;;;;;;-1.65;80.30;96038.77;1644072;86;21095;-83
2022/04/03 06:18:49;;;;;;;18.87;11.18;;;;;;;-1.65;80.40;96035.77;1644508;86;20973;-83
2022/04/03 06:21:15;;;;;;;16.65;11.05;;;;;;;-1.62;80.38;96042.39;1644866;86;21379;-83
2022/04/03 06:23:40;;;;;;;16.02;12.00;;;;;;;-1.58;80.37;96047.13;1644863;86;20960;-83
2022/04/03 06:26:06;;;;;;;15.13;11.68;;;;;;;-1.59;80.18;96048.52;1645353;86;21003;-83
2022/04/03 06:28:32;;;;;;;16.62;11.78;;;;;;;-1.57;79.98;96048.75;1657228;84;21048;-83
2022/04/03 06:30:59;;;;;;;16.10;11.93;;;;;;;-1.48;80.39;96047.23;1652858;86;21374;-83
2022/04/03 06:33:25;;;;;;;15.95;10.82;;;;;;;-1.39;80.32;96047.02;1643149;86;21023;-83
2022/04/03 06:35:51;;;;;;;16.85;11.20;;;;;;;-1.29;80.05;96053.05;1639998;86;21003;-83
2022/04/03 06:38:17;;;;;;;15.38;11.93;;;;;;;-1.36;79.43;96055.70;1645907;86;20994;-84
2022/04/03 06:40:54;;;;;;;18.42;12.25;;;;;;;-1.39;79.52;96054.66;1643452;86;20990;-83
2022/04/03 06:43:25;;;;;;;17.50;12.07;;;;;;;-1.27;79.76;96059.64;1643527;87;21351;-84
2022/04/03 06:45:51;;;;;;;17.30;11.88;;;;;;;-1.15;79.48;96061.70;1649707;87;21003;-84
2022/04/03 06:48:17;;;;;;;15.95;11.55;;;;;;;-1.12;78.90;96063.23;1645880;87;21368;-83
2022/04/03 06:50:44;;;;;;;15.50;11.80;;;;;;;-1.09;78.75;96071.45;1636205;87;21117;-84
2022/04/03 06:53:09;;;;;;;13.43;9.93;;;;;;;-1.10;78.29;96066.47;1628613;87;20966;-84
2022/04/03 06:55:35;;;;;;;12.58;9.88;;;;;;;-1.18;77.93;96067.50;1621561;87;20981;-84
2022/04/03 06:58:01;;;;;;;16.40;12.40;;;;;;;-1.26;77.29;96069.38;1626689;87;21376;-84
2022/04/03 07:00:27;;;;;;;17.62;12.45;;;;;;;-1.39;77.81;96070.77;1627509;87;20994;-89
2022/04/03 07:02:53;;;;;;;17.17;13.28;;;;;;;-1.39;78.33;96075.05;1643344;87;21006;-84
2022/04/03 07:05:19;;;;;;;13.15;11.15;;;;;;;-1.33;78.50;96087.31;1636106;87;20976;-84
2022/04/03 07:07:45;;;;;;;15.05;11.48;;;;;;;-1.31;78.35;96088.82;1634237;87;21392;-84
2022/04/03 07:10:11;;;;;;;16.48;11.65;;;;;;;-1.31;77.94;96094.38;1626635;87;21504;-84
2022/04/03 07:12:37;;;;;;;13.40;10.35;;;;;;;-1.34;77.76;96095.43;1641643;87;20974;-84
2022/04/03 07:15:04;;;;;;;14.30;12.07;;;;;;;-1.41;77.00;96101.92;1638345;87;21034;-84
2022/04/03 07:17:30;;;;;;;13.20;10.25;;;;;;;-1.44;77.85;96103.44;1649685;87;21051;-84
2022/04/03 07:19:56;;;;;;;13.90;11.73;;;;;;;-1.40;77.92;96108.64;1653630;87;21427;-84
2022/04/03 07:22:22;;;;;;;15.53;12.23;;;;;;;-1.37;78.20;96112.23;1653559;87;21402;-84
2022/04/03 07:24:47;;;;;;;16.32;11.60;;;;;;;-1.25;78.34;96117.69;1642720;87;20984;-85
2022/04/03 07:27:13;;;;;;;16.67;11.10;;;;;;;-1.20;78.12;96117.34;1638946;85;21028;-85
2022/04/03 07:29:39;;;;;;;18.48;13.48;;;;;;;-1.14;78.10;96123.27;1624640;87;21012;-85
2022/04/03 07:32:06;;;;;;;27.15;19.45;;;;;;;-1.09;77.77;96129.28;1644522;87;22003;-85
2022/04/03 07:34:32;;;;;;;31.45;23.38;;;;;;;-1.09;77.76;96133.92;1641536;87;21051;-84
2022/04/03 07:36:58;;;;;;;28.15;19.90;;;;;;;-0.98;77.76;96127.55;1641990;87;20964;-85
2022/04/03 07:39:26;;;;;;;20.82;15.40;;;;;;;-0.88;77.62;96128.91;1634381;87;21694;-86
2022/04/03 07:41:52;;;;;;;20.62;15.53;;;;;;;-0.78;77.43;96135.41;1625618;87;20956;-84
2022/04/03 07:44:17;;;;;;;18.62;13.93;;;;;;;-0.65;77.51;96134.81;1642559;87;21335;-83
2022/04/03 07:46:43;;;;;;;16.37;13.10;;;;;;;-0.52;77.52;96139.75;1645551;87;20988;-85
2022/04/03 07:49:10;;;;;;;14.58;12.55;;;;;;;-0.42;77.12;96138.93;1627364;87;21025;-84
2022/04/03 07:51:36;;;;;;;15.65;13.40;;;;;;;-0.37;76.63;96140.64;1637463;87;21030;-85
2022/04/03 07:54:03;;;;;;;19.48;14.93;;;;;;;-0.34;76.79;96151.08;1625180;87;21038;-85
2022/04/03 07:56:30;;;;;;;18.27;13.90;;;;;;;-0.33;76.38;96150.14;1633186;87;21416;-85
2022/04/03 07:58:56;;;;;;;19.87;14.10;;;;;;;-0.21;76.96;96154.77;1625480;87;21042;-84
2022/04/03 08:01:22;;;;;;;20.10;14.90;;;;;;;-0.07;76.88;96157.85;1642329;87;21413;-85
2022/04/03 08:03:48;;;;;;;22.62;15.93;;;;;;;-0.05;76.24;96161.55;1651243;87;21011;-84
2022/04/03 08:06:13;;;;;;;24.95;18.65;;;;;;;-0.09;76.33;96158.44;1645770;87;21001;-84
2022/04/03 08:08:39;;;;;;;25.45;18.15;;;;;;;-0.06;75.88;96162.49;1639703;87;21011;-84
2022/04/03 08:11:05;;;;;;;23.00;17.15;;;;;;;-0.10;75.51;96163.20;1638350;87;21377;-85
2022/04/03 08:13:31;;;;;;;23.75;17.12;;;;;;;-0.09;75.50;96169.13;1629311;87;20984;-85
2022/04/03 08:15:56;;;;;;;25.85;20.00;;;;;;;0.02;75.46;96170.38;1638177;87;21022;-86
2022/04/03 08:18:23;;;;;;;24.80;17.52;;;;;;;0.10;75.18;96177.41;1626639;87;21095;-85
2022/04/03 08:20:51;;;;;;;25.77;16.48;;;;;;;0.15;75.31;96176.57;1635564;87;21147;-85
2022/04/03 08:23:16;;;;;;;25.37;18.12;;;;;;;0.19;75.50;96181.34;1637155;87;21436;-84
2022/04/03 08:25:45;;;;;;;21.87;17.85;;;;;;;0.24;75.02;96174.57;1629996;87;20986;-85
2022/04/03 08:28:10;;;;;;;24.10;18.70;;;;;;;0.37;75.04;96181.60;1648615;87;21039;-84
2022/04/03 08:30:37;;;;;;;20.08;16.00;;;;;;;0.49;74.64;96185.73;1651661;87;20956;-85
2022/04/03 08:33:06;;;;;;;16.95;12.50;;;;;;;0.61;74.60;96196.69;1648685;87;21507;-85
2022/04/03 08:35:32;;;;;;;18.20;13.95;;;;;;;0.67;74.07;96195.39;1631530;87;20967;-86
2022/04/03 08:37:59;;;;;;;19.55;14.68;;;;;;;0.70;73.60;96200.25;1632099;87;20995;-84
2022/04/03 08:40:25;;;;;;;19.50;14.90;;;;;;;0.81;73.45;96197.61;1622941;87;20990;-84
2022/04/03 08:42:54;;;;;;;20.15;15.05;;;;;;;1.05;73.75;96195.59;1631305;87;21071;-84
2022/04/03 08:45:20;;;;;;;19.85;14.45;;;;;;;1.25;73.62;96199.05;1634680;87;20979;-84
2022/04/03 08:47:50;;;;;;;19.52;13.83;;;;;;;1.33;72.95;96199.22;1631185;87;21421;-84
2022/04/03 08:50:18;;;;;;;15.68;13.22;;;;;;;1.30;72.72;96202.48;1626649;86;21353;-84
2022/04/03 08:52:46;;;;;;;18.95;13.78;;;;;;;1.27;72.45;96208.68;1619352;87;21001;-84
2022/04/03 08:55:12;;;;;;;20.05;13.90;;;;;;;1.41;72.54;96213.92;1622936;87;21066;-84
2022/04/03 08:57:38;;;;;;;21.27;13.45;;;;;;;1.53;72.08;96216.73;1625343;87;21069;-84
2022/04/03 09:00:05;;;;;;;16.07;13.48;;;;;;;1.69;71.02;96216.25;1634625;87;21007;-84
2022/04/03 09:02:31;;;;;;;21.95;14.85;;;;;;;1.76;71.30;96225.02;1627233;87;20989;-84
2022/04/03 09:04:57;;;;;;;18.48;14.83;;;;;;;1.82;71.66;96224.52;1624991;87;21316;-84
2022/04/03 09:07:23;;;;;;;20.08;15.90;;;;;;;1.75;71.46;96225.48;1626230;86;21018;-83
2022/04/03 09:10:01;;;;;;;21.30;14.43;;;;;;;1.65;71.18;96228.98;1635870;86;21317;-82
2022/04/03 09:12:27;;;;;;;18.90;14.53;;;;;;;1.73;70.76;96226.56;1641019;87;21016;-83
2022/04/03 09:14:54;;;;;;;21.42;15.98;;;;;;;1.96;70.97;96227.98;1632838;87;21010;-83
2022/04/03 09:17:38;;;;;;;55.35;25.30;;;;;;;2.30;71.15;96234.84;1633113;87;21066;-83
2022/04/03 09:20:09;;;;;;;21.93;13.20;;;;;;;2.69;70.72;96232.25;1630331;87;21051;-83
2022/04/03 09:22:37;;;;;;;41.30;18.17;;;;;;;2.97;69.63;96243.44;1628447;87;21361;-83
2022/04/03 09:25:05;;;;;;;19.67;14.55;;;;;;;3.24;69.91;96240.92;1648125;86;20991;-84
2022/04/03 09:27:35;;;;;;;17.62;13.20;;;;;;;3.19;69.31;96244.86;1647676;86;21346;-83
2022/04/03 09:30:07;;;;;;;17.92;13.15;;;;;;;3.07;68.58;96246.77;1624929;86;21073;-85
2022/04/03 09:32:35;;;;;;;;;;;;;;;2.86;67.79;96246.14;1638718;86;21999;-84
2022/04/03 09:35:01;;;;;;;19.02;13.38;;;;;;;2.67;68.00;96248.27;1627755;86;20128;-81
2022/04/03 09:37:26;;;;;;;19.20;14.87;;;;;;;2.57;68.86;96250.81;1649169;86;21006;-81
2022/04/03 09:39:53;;;;;;;20.12;13.35;;;;;;;2.76;69.03;96253.84;1640496;86;21024;-81
2022/04/03 09:42:24;;;;;;;17.87;13.58;;;;;;;2.92;68.16;96255.84;1640412;87;21039;-81
2022/04/03 09:44:49;;;;;;;18.48;13.60;;;;;;;2.93;68.28;96258.31;1610973;87;21060;-83
2022/04/03 09:47:33;;;;;;;15.78;11.83;;;;;;;2.97;68.14;96263.97;1624169;88;21151;-84
2022/04/03 09:50:02;;;;;;;16.62;12.40;;;;;;;3.11;68.18;96264.02;1624297;88;21026;-82
2022/04/03 09:52:44;;;;;;;118.70;37.03;;;;;;;3.43;67.10;96256.77;1623996;88;21424;-83
2022/04/03 09:55:20;;;;;;;20.55;13.18;;;;;;;3.48;67.65;96262.28;1623799;88;21022;-84
2022/04/03 09:57:48;;;;;;;16.77;13.15;;;;;;;3.35;66.08;96268.67;1624140;88;21127;-84
2022/04/03 10:00:32;;;;;;;25.17;15.83;;;;;;;3.01;67.22;96266.11;1593854;89;21460;-85
2022/04/03 10:03:00;;;;;;;17.30;12.80;;;;;;;2.93;67.57;96270.33;1627933;88;21046;-83
2022/04/03 10:05:30;;;;;;;18.73;14.23;;;;;;;2.86;67.70;96275.18;1624171;88;21453;-83
2022/04/03 10:08:01;;;;;;;17.02;13.13;;;;;;;3.05;67.97;96276.91;1628071;86;21048;-83
2022/04/03 10:10:28;;;;;;;18.80;15.30;;;;;;;3.27;67.40;96274.52;1642468;87;21036;-83
2022/04/03 10:12:58;;;;;;;18.82;14.30;;;;;;;3.28;66.06;96280.80;1623845;88;21054;-84
2022/04/03 10:15:25;;;;;;;16.27;13.93;;;;;;;3.24;67.28;96281.20;1629575;88;20988;-83
2022/04/03 10:17:51;;;;;;;16.32;12.68;;;;;;;3.15;66.99;96287.17;1631919;88;21150;-83
2022/04/03 10:20:17;;;;;;;14.68;12.43;;;;;;;3.08;67.03;96288.66;1632329;88;21127;-83
2022/04/03 10:22:48;;;;;;;25.75;15.98;;;;;;;2.94;66.00;96287.34;1632579;88;21052;-83
2022/04/03 10:25:18;;;;;;;21.10;15.50;;;;;;;2.82;66.59;96289.23;1607224;88;21046;-83
2022/04/03 10:27:45;;;;;;;17.45;13.65;;;;;;;2.83;66.77;96287.01;1621577;88;21093;-83
2022/04/03 10:30:11;;;;;;;19.87;14.98;;;;;;;2.97;67.15;96289.63;1599881;89;21000;-83
2022/04/03 10:32:37;;;;;;;18.12;14.50;;;;;;;3.24;67.38;96288.42;1606282;89;21074;-83
2022/04/03 10:35:06;;;;;;;43.40;20.52;;;;;;;3.49;66.95;96286.21;1586320;89;21123;-83
2022/04/03 10:37:38;;;;;;;39.50;20.45;;;;;;;3.59;66.77;96284.44;1587745;89;21523;-83
2022/04/03 10:40:18;;;;;;;63.08;25.40;;;;;;;3.34;66.13;96286.32;1588402;89;21049;-84
2022/04/03 10:43:01;;;;;;;20.97;15.23;;;;;;;3.22;66.45;96289.04;1581144;89;21091;-83
2022/04/03 10:45:36;;;;;;;158.18;48.92;;;;;;;3.11;66.71;96293.54;1555685;91;21913;-83
2022/04/03 10:48:29;;;;;;;66.28;27.10;;;;;;;3.13;66.57;96291.64;1579962;89;21143;-84
2022/04/03 10:51:11;;;;;;;27.20;17.15;;;;;;;3.24;66.55;96288.42;1626313;87;21119;-84
2022/04/03 10:53:43;;;;;;;94.97;37.65;;;;;;;3.37;66.74;96291.17;1626762;87;21059;-83
2022/04/03 10:56:21;;;;;;;67.87;29.35;;;;;;;3.58;66.94;96293.09;1626793;87;21074;-83
2022/04/03 10:58:48;;;;;;;120.30;43.83;;;;;;;3.68;66.18;96283.57;1625964;87;21392;-83
2022/04/03 11:01:32;;;;;;;36.33;19.90;;;;;;;3.69;66.37;96287.75;1625879;87;21058;-83
2022/04/03 11:04:13;;;;;;;21.75;15.85;;;;;;;3.56;66.44;96290.63;1642545;87;21083;-84
2022/04/03 11:06:40;;;;;;;17.82;14.45;;;;;;;3.42;66.36;96294.97;1654019;87;21056;-83
2022/04/03 11:09:13;;;;;;;54.10;25.08;;;;;;;3.21;65.81;96295.59;1644175;85;21033;-83
2022/04/03 11:11:53;;;;;;;19.17;15.60;;;;;;;3.20;66.24;96297.83;1602757;88;21053;-83
2022/04/03 11:14:55;;;;;;;18.32;14.95;;;;;;;3.24;66.24;96301.73;1631504;87;20946;-83
2022/04/03 11:17:48;;;;;;;14.38;11.97;;;;;;;3.27;66.57;96306.63;1629998;87;21020;-83
2022/04/03 11:20:39;;;;;;;14.45;11.53;;;;;;;3.00;65.56;96303.00;1628299;87;21061;-83